createdAt,value
2022-11-14T00:01:21.610Z,3.42
2022-11-14T00:03:52.064Z,4.30
2022-11-14T00:06:20.277Z,4.60
2022-11-14T00:08:48.460Z,9.32
2022-11-14T00:11:16.703Z,6.03
2022-11-14T00:13:45.208Z,5.70
2022-11-14T00:16:14.860Z,5.35
2022-11-14T00:18:43.051Z,6.65
2022-11-14T00:21:11.281Z,5.07
2022-11-14T00:23:39.445Z,6.00
2022-11-14T00:26:07.905Z,5.03
2022-11-14T00:28:36.072Z,9.60
2022-11-14T00:31:04.308Z,8.65
2022-11-14T00:33:33.878Z,8.05
2022-11-14T00:36:02.095Z,6.45
2022-11-14T00:38:30.565Z,7.70
2022-11-14T00:40:58.881Z,7.50
2022-11-14T00:43:27.049Z,6.20
2022-11-14T00:45:55.272Z,6.13
2022-11-14T00:48:23.558Z,6.03
2022-11-14T00:50:53.148Z,5.78
2022-11-14T00:53:21.315Z,7.90
2022-11-14T00:55:49.513Z,6.07
2022-11-14T00:58:17.851Z,5.68
2022-11-14T01:00:46.143Z,6.13
2022-11-14T01:03:14.395Z,5.93
2022-11-14T01:05:43.584Z,5.05
2022-11-14T01:08:14.368Z,6.90
2022-11-14T01:10:43.379Z,5.53
2022-11-14T01:13:11.701Z,5.15
2022-11-14T01:15:43.726Z,4.70
2022-11-14T01:18:12.976Z,4.40
2022-11-14T01:20:41.617Z,5.40
2022-11-14T01:23:10.453Z,4.45
2022-11-14T01:25:41.729Z,5.88
2022-11-14T01:28:10.957Z,5.63
2022-11-14T01:30:39.722Z,4.60
2022-11-14T01:33:07.988Z,5.18
2022-11-14T01:35:37.964Z,4.80
2022-11-14T01:40:35.403Z,4.38
2022-11-14T01:43:28.672Z,4.50
2022-11-14T01:45:59.871Z,4.78
2022-11-14T01:48:32.965Z,4.53
2022-11-14T01:51:04.517Z,4.00
2022-11-14T01:53:33.762Z,4.95
2022-11-14T01:56:07.475Z,5.00
2022-11-14T01:58:39.485Z,4.30
2022-11-14T02:01:08.257Z,4.60
2022-11-14T02:03:40.281Z,4.40
2022-11-14T02:06:11.861Z,5.55
2022-11-14T02:08:41.273Z,4.13
2022-11-14T02:11:12.305Z,4.00
2022-11-14T02:13:42.031Z,4.15
2022-11-14T02:16:10.329Z,4.45
2022-11-14T02:18:38.545Z,4.38
2022-11-14T02:21:08.363Z,4.30
2022-11-14T02:23:36.567Z,4.30
2022-11-14T02:26:04.891Z,5.03
2022-11-14T02:28:33.154Z,4.75
2022-11-14T02:31:01.491Z,4.22
2022-11-14T02:33:29.758Z,4.28
2022-11-14T02:35:57.973Z,4.70
2022-11-14T02:38:27.945Z,4.55
2022-11-14T02:40:56.447Z,5.03
2022-11-14T02:43:24.695Z,4.45
2022-11-14T02:45:52.981Z,5.00
2022-11-14T02:48:21.276Z,3.97
2022-11-14T02:50:51.031Z,3.92
2022-11-14T02:53:19.332Z,4.30
2022-11-14T02:55:48.951Z,4.50
2022-11-14T02:58:17.098Z,3.95
2022-11-14T03:01:13.491Z,4.20
2022-11-14T03:03:33.331Z,5.07
2022-11-14T03:06:01.716Z,3.92
2022-11-14T03:08:30.222Z,4.72
2022-11-14T03:11:05.471Z,4.45
2022-11-14T03:13:33.668Z,4.60
2022-11-14T03:16:06.994Z,5.25
2022-11-14T03:18:35.398Z,4.00
2022-11-14T03:21:07.758Z,4.28
2022-11-14T03:23:35.939Z,4.30
2022-11-14T03:26:07.639Z,3.72
2022-11-14T03:28:36.008Z,4.20
2022-11-14T03:31:04.144Z,4.07
2022-11-14T03:33:32.302Z,4.47
2022-11-14T03:36:00.396Z,4.20
2022-11-14T03:38:28.836Z,4.68
2022-11-14T03:40:59.456Z,4.28
2022-11-14T03:43:32.744Z,4.00
2022-11-14T03:46:01.260Z,4.82
2022-11-14T03:48:30.055Z,4.05
2022-11-14T03:50:58.772Z,4.50
2022-11-14T03:53:28.292Z,4.28
2022-11-14T03:55:56.706Z,4.82
2022-11-14T03:58:24.827Z,4.68
2022-11-14T04:00:55.919Z,4.35
2022-11-14T04:03:24.224Z,4.47
2022-11-14T04:05:52.740Z,4.40
2022-11-14T04:08:20.850Z,4.40
2022-11-14T04:10:49.546Z,3.92
2022-11-14T04:13:17.806Z,4.03
2022-11-14T04:15:46.203Z,3.70
2022-11-14T04:18:15.755Z,4.25
2022-11-14T04:20:43.841Z,4.20
2022-11-14T04:23:11.956Z,4.28
2022-11-14T04:25:40.064Z,4.22
2022-11-14T04:28:08.180Z,4.68
2022-11-14T04:30:36.281Z,6.97
2022-11-14T04:33:04.430Z,6.78
2022-11-14T04:35:33.907Z,5.85
2022-11-14T04:38:02.032Z,4.90
2022-11-14T04:40:30.160Z,5.82
2022-11-14T04:42:58.299Z,5.03
2022-11-14T04:45:26.440Z,5.32
2022-11-14T04:47:54.610Z,5.03
2022-11-14T04:50:22.715Z,5.65
2022-11-14T04:52:54.625Z,5.75
2022-11-14T04:55:22.800Z,5.13
2022-11-14T04:57:55.469Z,5.65
2022-11-14T05:00:24.283Z,5.22
2022-11-14T05:02:52.766Z,5.10
2022-11-14T05:05:20.864Z,6.55
2022-11-14T05:07:49.046Z,9.00
2022-11-14T05:10:18.649Z,7.93
2022-11-14T05:12:46.784Z,7.68
2022-11-14T05:15:14.933Z,11.23
2022-11-14T05:17:43.098Z,9.90
2022-11-14T05:20:12.246Z,9.00
2022-11-14T05:22:40.398Z,10.07
2022-11-14T05:25:09.652Z,11.63
2022-11-14T05:27:39.146Z,9.33
2022-11-14T05:30:08.284Z,8.70
2022-11-14T05:32:36.410Z,8.43
2022-11-14T05:35:04.753Z,8.07
2022-11-14T05:37:32.876Z,7.05
2022-11-14T05:40:01.217Z,7.47
2022-11-14T05:42:29.645Z,9.07
2022-11-14T05:44:59.172Z,10.27
2022-11-14T05:47:27.320Z,6.15
2022-11-14T05:49:55.431Z,20.98
2022-11-14T05:52:23.492Z,22.77
2022-11-14T05:54:51.594Z,18.48
2022-11-14T05:57:19.683Z,19.13
2022-11-14T05:59:47.790Z,16.95
2022-11-14T06:02:17.314Z,15.88
2022-11-14T06:04:45.472Z,15.20
2022-11-14T06:07:18.817Z,16.15
2022-11-14T06:09:48.137Z,14.18
2022-11-14T06:12:16.214Z,14.23
2022-11-14T06:14:44.361Z,15.23
2022-11-14T06:17:12.432Z,16.15
2022-11-14T06:19:41.944Z,17.17
2022-11-14T06:22:10.026Z,15.85
2022-11-14T06:24:38.174Z,17.33
2022-11-14T06:27:06.248Z,13.10
2022-11-14T06:29:35.766Z,16.05
2022-11-14T06:32:04.031Z,21.05
2022-11-14T06:34:32.323Z,16.13
2022-11-14T06:37:01.792Z,14.85
2022-11-14T06:39:29.955Z,16.27
2022-11-14T06:41:58.367Z,15.57
2022-11-14T06:44:30.750Z,15.80
2022-11-14T06:46:59.222Z,16.40
2022-11-14T06:49:27.918Z,15.13
2022-11-14T06:51:56.305Z,12.70
2022-11-14T06:54:25.788Z,20.77
2022-11-14T06:56:53.873Z,14.95
2022-11-14T06:59:21.991Z,13.65
2022-11-14T07:01:50.074Z,11.77
2022-11-14T07:04:18.269Z,12.52
2022-11-14T07:06:46.434Z,12.40
2022-11-14T07:09:14.705Z,12.25
2022-11-14T07:11:46.836Z,12.88
2022-11-14T07:14:15.131Z,15.07
2022-11-14T07:16:43.254Z,11.65
2022-11-14T07:19:11.437Z,15.25
2022-11-14T07:21:39.879Z,13.18
2022-11-14T07:24:08.579Z,10.07
2022-11-14T07:26:36.772Z,13.50
2022-11-14T07:29:06.304Z,12.93
2022-11-14T07:31:34.411Z,12.93
2022-11-14T07:34:02.529Z,12.20
2022-11-14T07:36:30.621Z,11.95
2022-11-14T07:38:58.991Z,10.38
2022-11-14T07:41:27.171Z,13.38
2022-11-14T07:43:55.309Z,11.30
2022-11-14T07:46:24.771Z,10.52
2022-11-14T07:48:52.883Z,10.93
2022-11-14T07:51:21.925Z,10.32
2022-11-14T07:53:50.028Z,9.25
2022-11-14T07:56:18.187Z,9.90
2022-11-14T07:58:46.332Z,10.25
2022-11-14T08:01:15.603Z,9.18
2022-11-14T08:03:46.249Z,9.83
2022-11-14T08:06:16.329Z,8.85
2022-11-14T08:08:44.571Z,8.73
2022-11-14T08:11:13.011Z,8.88
2022-11-14T08:13:41.161Z,8.00
2022-11-14T08:16:13.698Z,8.48
2022-11-14T08:18:44.030Z,7.80
2022-11-14T08:21:12.117Z,8.70
2022-11-14T08:23:40.378Z,8.32
2022-11-14T08:26:08.492Z,9.55
2022-11-14T08:28:36.651Z,8.45
2022-11-14T08:31:05.797Z,7.50
2022-11-14T08:33:34.082Z,7.40
2022-11-14T08:36:04.734Z,8.05
2022-11-14T08:38:33.909Z,6.32
2022-11-14T08:41:03.154Z,7.10
2022-11-14T08:43:31.790Z,6.28
2022-11-14T08:46:01.782Z,6.68
2022-11-14T08:48:31.318Z,6.53
2022-11-14T08:51:03.009Z,7.88
2022-11-14T08:53:32.777Z,6.45
2022-11-14T08:56:01.208Z,5.50
2022-11-14T08:58:31.601Z,6.15
2022-11-14T09:01:03.973Z,6.70
2022-11-14T09:03:32.354Z,6.40
2022-11-14T09:06:01.235Z,9.18
2022-11-14T09:08:30.188Z,6.75
2022-11-14T09:11:05.612Z,6.57
2022-11-14T09:13:35.021Z,5.60
2022-11-14T09:16:03.181Z,5.63
2022-11-14T09:18:32.346Z,5.30
2022-11-14T09:21:04.586Z,5.45
2022-11-14T09:23:33.203Z,4.50
2022-11-14T09:26:06.502Z,6.45
2022-11-14T09:28:35.008Z,5.50
2022-11-14T09:31:03.286Z,4.70
2022-11-14T09:33:31.646Z,4.53
2022-11-14T09:36:00.450Z,5.00
2022-11-14T09:38:31.761Z,4.75
2022-11-14T09:41:20.940Z,4.40
2022-11-14T09:44:09.116Z,4.72
2022-11-14T09:46:41.613Z,4.57
2022-11-14T09:49:19.040Z,4.78
2022-11-14T09:51:53.183Z,4.32
2022-11-14T09:54:24.378Z,4.93
2022-11-14T09:56:54.058Z,4.43
2022-11-14T09:59:22.238Z,4.03
2022-11-14T10:02:02.615Z,4.82
2022-11-14T10:04:45.288Z,4.15
2022-11-14T10:07:26.563Z,3.83
2022-11-14T10:10:02.706Z,3.65
2022-11-14T10:12:41.798Z,3.55
2022-11-14T10:15:21.467Z,3.80
2022-11-14T10:18:06.608Z,6.00
2022-11-14T10:20:40.772Z,9.68
2022-11-14T10:23:24.491Z,9.95
2022-11-14T10:25:57.465Z,7.80
2022-11-14T10:28:41.998Z,7.07
2022-11-14T10:31:20.322Z,20.88
2022-11-14T10:33:54.182Z,13.57
2022-11-14T10:36:34.855Z,14.85
2022-11-14T10:39:10.843Z,8.75
2022-11-14T10:41:56.670Z,13.35
2022-11-14T10:44:34.073Z,8.95
2022-11-14T10:47:05.644Z,11.77
2022-11-14T10:49:37.272Z,8.40
2022-11-14T10:52:08.615Z,8.20
2022-11-14T10:54:43.070Z,11.75
2022-11-14T10:57:17.340Z,7.60
2022-11-14T10:59:47.414Z,8.02
2022-11-14T11:02:16.085Z,8.48
2022-11-14T11:04:45.565Z,4.32
2022-11-14T11:07:42.333Z,7.72
2022-11-14T11:10:40.830Z,8.20
2022-11-14T11:13:15.633Z,8.45
2022-11-14T11:15:46.574Z,6.07
2022-11-14T11:18:30.720Z,11.20
2022-11-14T11:21:11.414Z,9.00
2022-11-14T11:23:51.241Z,9.65
2022-11-14T11:26:22.065Z,9.55
2022-11-14T11:29:06.149Z,13.15
2022-11-14T11:31:55.384Z,10.13
2022-11-14T11:34:26.691Z,9.50
2022-11-14T11:37:00.100Z,9.57
2022-11-14T11:39:31.134Z,10.35
2022-11-14T11:42:10.994Z,10.63
2022-11-14T11:44:44.495Z,10.45
2022-11-14T11:47:18.027Z,10.13
2022-11-14T11:49:53.507Z,10.55
2022-11-14T11:52:33.665Z,9.90
2022-11-14T11:55:14.420Z,9.80
2022-11-14T11:57:45.370Z,9.63
2022-11-14T12:00:17.832Z,9.57
2022-11-14T12:02:50.487Z,9.95
2022-11-14T12:05:26.503Z,8.52
2022-11-14T12:08:04.315Z,9.45
2022-11-14T12:10:35.030Z,9.10
2022-11-14T12:13:40.209Z,8.60
2022-11-14T12:16:29.620Z,9.63
2022-11-14T12:19:24.050Z,9.80
2022-11-14T12:22:26.408Z,9.50
2022-11-14T12:25:07.955Z,8.90
2022-11-14T12:27:50.630Z,9.48
2022-11-14T12:30:21.979Z,9.57
2022-11-14T12:32:54.702Z,8.77
2022-11-14T12:35:27.735Z,9.10
2022-11-14T12:37:58.484Z,8.93
2022-11-14T12:40:30.341Z,9.55
2022-11-14T12:42:59.665Z,9.45
2022-11-14T12:45:58.973Z,9.27
2022-11-14T12:48:39.021Z,9.20
2022-11-14T12:51:48.335Z,9.55
2022-11-14T12:54:45.517Z,9.88
2022-11-14T12:57:44.814Z,9.13
2022-11-14T13:00:13.522Z,8.63
2022-11-14T13:03:10.871Z,8.70
2022-11-14T13:05:55.333Z,8.25
2022-11-14T13:09:07.557Z,7.65
2022-11-14T13:11:59.263Z,7.50
2022-11-14T13:14:45.310Z,7.45
2022-11-14T13:17:44.042Z,7.57
2022-11-14T13:20:50.477Z,8.73
2022-11-14T13:23:56.783Z,7.70
2022-11-14T13:26:46.474Z,8.52
2022-11-14T13:29:50.560Z,8.02
2022-11-14T13:33:05.938Z,8.18
2022-11-14T13:36:00.830Z,8.40
2022-11-14T13:39:20.228Z,8.27
2022-11-14T13:42:10.543Z,7.30
2022-11-14T13:44:57.347Z,8.85
2022-11-14T13:47:58.107Z,10.77
2022-11-14T13:50:30.901Z,8.55
2022-11-14T13:52:59.701Z,8.00
2022-11-14T13:55:38.239Z,8.95
2022-11-14T13:58:32.987Z,7.63
2022-11-14T14:01:13.783Z,6.15
2022-11-14T14:03:53.607Z,8.70
2022-11-14T14:06:37.246Z,6.72
2022-11-14T14:09:16.469Z,6.05
2022-11-14T14:11:55.094Z,5.40
2022-11-14T14:14:47.472Z,5.68
2022-11-14T14:17:20.844Z,5.25
2022-11-14T14:20:00.715Z,5.93
2022-11-14T14:22:37.484Z,7.07
2022-11-14T14:25:18.298Z,5.22
2022-11-14T14:27:53.403Z,5.13
2022-11-14T14:30:23.236Z,5.60
2022-11-14T14:33:04.390Z,5.00
2022-11-14T14:35:38.863Z,5.00
2022-11-14T14:38:13.500Z,6.68
2022-11-14T14:40:43.150Z,5.40
2022-11-14T14:45:52.811Z,4.70
2022-11-14T14:48:26.044Z,4.88
2022-11-14T14:50:56.112Z,5.88
2022-11-14T14:53:26.260Z,6.00
2022-11-14T14:55:57.287Z,5.10
2022-11-14T14:58:29.617Z,5.20
2022-11-14T15:01:01.590Z,4.95
2022-11-14T15:03:36.990Z,4.13
2022-11-14T15:06:06.846Z,4.68
2022-11-14T15:08:39.623Z,6.40
2022-11-14T15:11:08.415Z,5.63
2022-11-14T15:13:38.740Z,3.60
2022-11-14T15:16:10.461Z,4.10
2022-11-14T15:18:39.202Z,4.20
2022-11-14T15:21:14.645Z,3.95
2022-11-14T15:23:42.799Z,4.00
2022-11-14T15:26:17.209Z,8.48
2022-11-14T15:28:45.774Z,8.15
2022-11-14T15:31:24.195Z,9.32
2022-11-14T15:34:08.110Z,7.03
2022-11-14T15:36:36.248Z,6.25
2022-11-14T15:39:22.967Z,7.95
2022-11-14T15:41:51.094Z,8.30
2022-11-14T15:44:32.053Z,6.32
2022-11-14T15:47:03.071Z,6.05
2022-11-14T15:49:31.372Z,5.18
2022-11-14T15:52:01.182Z,2.58
2022-11-14T15:57:00.481Z,2.93
2022-11-14T15:59:30.720Z,2.58
2022-11-14T16:02:04.423Z,4.53
2022-11-14T16:04:35.079Z,3.03
2022-11-14T16:07:03.298Z,7.75
2022-11-14T16:09:31.482Z,4.55
2022-11-14T16:11:59.602Z,3.85
2022-11-14T16:14:27.698Z,4.50
2022-11-14T16:16:55.893Z,3.58
2022-11-14T16:19:25.359Z,4.63
2022-11-14T16:21:53.592Z,4.28
2022-11-14T16:24:23.362Z,3.67
2022-11-14T16:26:51.819Z,5.88
2022-11-14T16:29:19.958Z,3.92
2022-11-14T16:31:48.593Z,4.65
2022-11-14T16:34:20.338Z,7.60
2022-11-14T16:36:51.646Z,3.83
2022-11-14T16:39:19.750Z,3.92
2022-11-14T16:41:47.840Z,9.02
2022-11-14T16:44:17.689Z,5.30
2022-11-14T16:49:15.643Z,6.38
2022-11-14T16:54:20.232Z,4.45
2022-11-14T16:56:49.086Z,4.10
2022-11-14T16:59:17.398Z,4.55
2022-11-14T17:01:46.059Z,4.15
2022-11-14T17:04:14.261Z,10.90
2022-11-14T17:06:42.403Z,8.85
2022-11-14T17:09:14.702Z,8.80
2022-11-14T17:11:45.502Z,8.52
2022-11-14T17:14:13.777Z,8.23
2022-11-14T17:16:41.880Z,6.82
2022-11-14T17:19:09.982Z,8.45
2022-11-14T17:21:38.093Z,6.75
2022-11-14T17:24:07.010Z,11.30
2022-11-14T17:26:36.565Z,6.72
2022-11-14T17:29:06.564Z,8.00
2022-11-14T17:34:09.803Z,14.35
2022-11-14T17:36:37.938Z,7.00
2022-11-14T17:39:06.404Z,11.30
2022-11-14T17:41:35.237Z,10.10
2022-11-14T17:44:03.752Z,8.02
2022-11-14T17:46:33.805Z,11.00
2022-11-14T17:49:02.258Z,7.55
2022-11-14T17:51:30.717Z,7.85
2022-11-14T17:53:59.142Z,6.97
2022-11-14T17:56:28.024Z,7.88
2022-11-14T17:58:56.434Z,7.68
2022-11-14T18:01:26.157Z,8.65
2022-11-14T18:04:00.490Z,9.65
2022-11-14T18:06:32.994Z,9.90
2022-11-14T18:09:05.094Z,7.28
2022-11-14T18:11:33.909Z,11.13
2022-11-14T18:14:02.351Z,6.22
2022-11-14T18:16:50.475Z,7.20
2022-11-14T18:19:20.851Z,5.82
2022-11-14T18:21:53.413Z,5.88
2022-11-14T18:24:23.683Z,5.28
2022-11-14T18:26:51.993Z,8.25
2022-11-14T18:29:20.404Z,6.78
2022-11-14T18:31:49.248Z,6.10
2022-11-14T18:34:17.382Z,4.78
2022-11-14T18:36:46.997Z,4.85
2022-11-14T18:39:15.099Z,5.88
2022-11-14T18:41:43.179Z,7.13
2022-11-14T18:44:11.330Z,6.93
2022-11-14T18:46:39.619Z,5.95
2022-11-14T18:49:07.727Z,7.00
2022-11-14T18:51:41.986Z,6.97
2022-11-14T18:54:13.700Z,4.93
2022-11-14T18:56:41.901Z,4.80
2022-11-14T18:59:10.301Z,5.90
2022-11-14T19:01:38.577Z,6.95
2022-11-14T19:04:08.980Z,6.88
2022-11-14T19:06:39.369Z,4.47
2022-11-14T19:09:11.360Z,4.18
2022-11-14T19:11:58.470Z,4.40
2022-11-14T19:14:26.641Z,4.78
2022-11-14T19:16:55.029Z,4.43
2022-11-14T19:19:23.206Z,3.90
2022-11-14T19:21:51.505Z,4.60
2022-11-14T19:24:19.802Z,6.28
2022-11-14T19:26:49.255Z,5.70
2022-11-14T19:29:17.526Z,5.25
2022-11-14T19:31:45.644Z,4.15
2022-11-14T19:34:13.758Z,3.58
2022-11-14T19:39:30.321Z,5.38
2022-11-14T19:41:59.815Z,3.97
2022-11-14T19:44:27.950Z,4.20
2022-11-14T19:46:56.072Z,3.78
2022-11-14T19:49:24.303Z,4.30
2022-11-14T19:51:52.408Z,3.83
2022-11-14T19:54:20.539Z,3.95
2022-11-14T19:56:48.627Z,4.40
2022-11-14T19:59:23.981Z,4.95
2022-11-14T20:01:55.256Z,4.47
2022-11-14T20:04:23.760Z,4.70
2022-11-14T20:06:52.070Z,7.35
2022-11-14T20:09:20.258Z,5.30
2022-11-14T20:11:48.368Z,5.30
2022-11-14T20:14:18.020Z,6.20
2022-11-14T20:16:46.796Z,7.82
2022-11-14T20:19:16.178Z,5.68
2022-11-14T20:21:44.560Z,7.22
2022-11-14T20:24:14.390Z,7.85
2022-11-14T20:26:42.526Z,5.88
2022-11-14T20:29:10.618Z,6.70
2022-11-14T20:31:40.121Z,8.38
2022-11-14T20:34:08.245Z,6.60
2022-11-14T20:37:08.859Z,5.57
2022-11-14T20:39:24.560Z,6.22
2022-11-14T20:41:52.731Z,4.80
2022-11-14T20:44:20.875Z,3.90
2022-11-14T20:46:50.771Z,4.97
2022-11-14T20:49:19.399Z,6.43
2022-11-14T20:51:50.137Z,5.38
2022-11-14T20:54:18.688Z,3.92
2022-11-14T20:56:47.262Z,4.43
2022-11-14T20:59:15.894Z,5.07
2022-11-14T21:01:44.903Z,7.40
2022-11-14T21:04:14.477Z,6.47
2022-11-14T21:06:42.567Z,8.90
2022-11-14T21:09:11.078Z,7.25
2022-11-14T21:11:39.159Z,5.43
2022-11-14T21:14:09.065Z,5.28
2022-11-14T21:16:40.126Z,11.93
2022-11-14T21:19:08.545Z,7.22
2022-11-14T21:21:39.415Z,10.43
2022-11-14T21:24:08.715Z,11.70
2022-11-14T21:26:39.121Z,9.25
2022-11-14T21:29:09.109Z,6.30
2022-11-14T21:34:07.829Z,5.70
2022-11-14T21:39:15.279Z,9.43
2022-11-14T21:41:44.326Z,6.53
2022-11-14T21:44:14.593Z,7.10
2022-11-14T21:46:43.162Z,6.13
2022-11-14T21:49:11.491Z,8.25
2022-11-14T21:51:41.004Z,5.25
2022-11-14T21:54:09.799Z,4.43
2022-11-14T21:59:17.691Z,13.52
2022-11-14T22:02:04.593Z,7.10
2022-11-14T22:04:33.408Z,5.78
2022-11-14T22:07:04.851Z,8.32
2022-11-14T22:09:33.394Z,8.15
2022-11-14T22:12:01.719Z,6.85
2022-11-14T22:14:30.832Z,6.60
2022-11-14T22:16:59.103Z,8.53
2022-11-14T22:19:27.335Z,7.50
2022-11-14T22:21:55.451Z,6.07
2022-11-14T22:24:25.104Z,6.40
2022-11-14T22:26:53.203Z,6.30
2022-11-14T22:29:21.290Z,6.43
2022-11-14T22:31:52.886Z,5.85
2022-11-14T22:34:21.124Z,5.93
2022-11-14T22:36:49.309Z,4.60
2022-11-14T22:39:17.376Z,4.97
2022-11-14T22:41:46.825Z,5.47
2022-11-14T22:44:14.879Z,4.75
2022-11-14T22:46:42.975Z,5.13
2022-11-14T22:49:11.026Z,7.25
2022-11-14T22:51:39.130Z,3.55
2022-11-14T22:54:07.251Z,3.97
2022-11-14T22:56:35.338Z,5.13
2022-11-14T22:59:04.823Z,4.35
2022-11-14T23:01:33.933Z,3.63
2022-11-14T23:04:03.481Z,4.37
2022-11-14T23:06:33.771Z,4.30
2022-11-14T23:09:02.462Z,5.68
2022-11-14T23:11:32.717Z,3.30
2022-11-14T23:14:01.926Z,5.50
2022-11-14T23:16:33.605Z,4.90
2022-11-14T23:19:03.232Z,5.07
2022-11-14T23:21:33.203Z,4.05
2022-11-14T23:26:32.355Z,3.25
2022-11-14T23:29:00.965Z,3.80
2022-11-14T23:31:29.348Z,3.60
2022-11-14T23:33:59.207Z,3.83
2022-11-14T23:36:27.288Z,5.43
2022-11-14T23:38:55.572Z,5.15
2022-11-14T23:41:25.461Z,3.63
2022-11-14T23:43:54.204Z,3.95
2022-11-14T23:46:22.410Z,4.00
2022-11-14T23:48:50.846Z,3.90
2022-11-14T23:51:20.324Z,4.00
2022-11-14T23:53:48.400Z,3.53
2022-11-14T23:56:16.530Z,3.45
2022-11-14T23:58:45.031Z,3.40
